createdAt,value
2022-09-25T00:01:52.801Z,11.44
2022-09-25T00:04:54.648Z,11.42
2022-09-25T00:07:56.506Z,11.41
2022-09-25T00:10:58.194Z,11.40
2022-09-25T00:14:01.237Z,11.39
2022-09-25T00:17:03.104Z,11.38
2022-09-25T00:20:05.141Z,11.43
2022-09-25T00:23:08.919Z,11.40
2022-09-25T00:26:12.739Z,11.41
2022-09-25T00:29:19.276Z,11.42
2022-09-25T00:32:20.938Z,11.43
2022-09-25T00:35:22.612Z,11.40
2022-09-25T00:38:24.205Z,11.42
2022-09-25T00:41:27.362Z,11.40
2022-09-25T00:44:47.117Z,11.41
2022-09-25T00:47:55.156Z,11.38
2022-09-25T00:50:58.886Z,11.40
2022-09-25T00:54:05.313Z,11.38
2022-09-25T00:57:10.744Z,11.37
2022-09-25T01:00:13.468Z,11.34
2022-09-25T01:03:16.381Z,11.35
2022-09-25T01:06:18.748Z,11.36
2022-09-25T01:09:20.711Z,11.33
2022-09-25T01:12:22.617Z,11.33
2022-09-25T01:15:38.298Z,11.34
2022-09-25T01:18:55.167Z,11.33
2022-09-25T01:22:08.120Z,11.33
2022-09-25T01:25:55.001Z,11.33
2022-09-25T01:29:19.317Z,11.34
2022-09-25T01:32:29.202Z,11.32
2022-09-25T01:35:49.228Z,11.32
2022-09-25T01:38:55.738Z,11.31
2022-09-25T01:42:09.161Z,11.31
2022-09-25T01:45:20.272Z,11.31
2022-09-25T01:48:27.313Z,11.28
2022-09-25T01:51:46.969Z,11.27
2022-09-25T01:54:54.405Z,11.24
2022-09-25T01:58:10.427Z,11.24
2022-09-25T02:01:19.254Z,11.24
2022-09-25T02:04:26.469Z,11.21
2022-09-25T02:07:35.934Z,11.21
2022-09-25T02:10:45.120Z,11.19
2022-09-25T02:14:17.242Z,11.19
2022-09-25T02:17:43.786Z,11.16
2022-09-25T02:21:33.611Z,11.14
2022-09-25T02:24:59.122Z,11.11
2022-09-25T02:28:01.698Z,11.11
2022-09-25T02:31:07.914Z,11.08
2022-09-25T02:34:14.948Z,11.08
2022-09-25T02:37:18.111Z,11.06
2022-09-25T02:40:23.222Z,11.05
2022-09-25T02:43:53.333Z,11.05
2022-09-25T02:47:36.021Z,11.02
2022-09-25T02:50:56.451Z,10.99
2022-09-25T02:54:21.048Z,10.96
2022-09-25T02:57:37.431Z,10.94
2022-09-25T03:00:42.069Z,10.95
2022-09-25T03:03:46.754Z,10.95
2022-09-25T03:06:48.465Z,10.94
2022-09-25T03:09:54.078Z,10.94
2022-09-25T03:12:55.721Z,10.94
2022-09-25T03:16:01.647Z,10.95
2022-09-25T03:19:03.797Z,10.96
2022-09-25T03:22:05.583Z,10.96
2022-09-25T03:25:08.372Z,10.97
2022-09-25T03:28:11.333Z,10.96
2022-09-25T03:31:13.061Z,10.94
2022-09-25T03:34:17.232Z,10.93
2022-09-25T03:37:20.606Z,10.94
2022-09-25T03:40:22.314Z,10.91
2022-09-25T03:43:24.144Z,10.93
2022-09-25T03:46:30.482Z,10.90
2022-09-25T03:49:32.184Z,10.90
2022-09-25T03:52:34.513Z,10.89
2022-09-25T03:55:36.157Z,10.89
2022-09-25T03:58:37.855Z,10.85
2022-09-25T04:01:40.656Z,10.82
2022-09-25T04:04:42.618Z,10.81
2022-09-25T04:07:44.236Z,10.76
2022-09-25T04:10:46.383Z,10.70
2022-09-25T04:13:48.299Z,10.68
2022-09-25T04:16:50.535Z,10.64
2022-09-25T04:19:53.006Z,10.61
2022-09-25T04:22:54.557Z,10.62
2022-09-25T04:25:56.927Z,10.57
2022-09-25T04:29:01.488Z,10.59
2022-09-25T04:32:22.325Z,10.59
2022-09-25T04:35:24.013Z,10.61
2022-09-25T04:38:25.621Z,10.64
2022-09-25T04:41:27.235Z,10.64
2022-09-25T04:44:29.670Z,10.66
2022-09-25T04:47:31.273Z,10.67
2022-09-25T04:50:34.146Z,10.68
2022-09-25T04:53:40.055Z,10.69
2022-09-25T04:56:43.856Z,10.71
2022-09-25T04:59:46.008Z,10.73
2022-09-25T05:02:48.228Z,10.76
2022-09-25T05:05:49.993Z,10.75
2022-09-25T05:08:52.087Z,10.78
2022-09-25T05:11:53.671Z,10.78
2022-09-25T05:14:55.259Z,10.82
2022-09-25T05:18:05.696Z,10.86
2022-09-25T05:21:07.280Z,10.88
2022-09-25T05:24:10.063Z,10.91
2022-09-25T05:27:13.067Z,10.92
2022-09-25T05:30:14.660Z,10.94
2022-09-25T05:33:16.564Z,10.97
2022-09-25T05:36:18.872Z,11.01
2022-09-25T05:39:20.512Z,11.00
2022-09-25T05:42:22.839Z,11.03
2022-09-25T05:45:24.513Z,11.05
2022-09-25T05:48:26.440Z,11.08
2022-09-25T05:51:28.306Z,11.08
2022-09-25T05:54:30.276Z,11.08
2022-09-25T05:57:32.679Z,11.07
2022-09-25T06:00:34.347Z,11.07
2022-09-25T06:03:36.191Z,11.08
2022-09-25T06:06:37.830Z,11.08
2022-09-25T06:09:39.503Z,11.10
2022-09-25T06:12:41.149Z,11.06
2022-09-25T06:15:42.844Z,11.08
2022-09-25T06:18:44.486Z,11.09
2022-09-25T06:21:46.465Z,11.12
2022-09-25T06:24:49.036Z,11.12
2022-09-25T06:27:55.281Z,11.13
2022-09-25T06:31:00.153Z,11.08
2022-09-25T06:34:02.131Z,11.07
2022-09-25T06:37:03.746Z,11.10
2022-09-25T06:40:06.071Z,11.11
2022-09-25T06:43:10.852Z,11.12
2022-09-25T06:46:12.542Z,11.13
2022-09-25T06:49:14.757Z,11.14
2022-09-25T06:52:17.001Z,11.15
2022-09-25T06:55:18.616Z,11.18
2022-09-25T06:58:22.709Z,11.19
2022-09-25T07:01:24.425Z,11.21
2022-09-25T07:04:26.157Z,11.24
2022-09-25T07:07:28.725Z,11.26
2022-09-25T07:10:30.346Z,11.27
2022-09-25T07:13:35.727Z,11.32
2022-09-25T07:16:37.508Z,11.35
2022-09-25T07:19:39.156Z,11.39
2022-09-25T07:22:42.122Z,11.43
2022-09-25T07:25:45.422Z,11.45
2022-09-25T07:28:47.210Z,11.48
2022-09-25T07:31:48.904Z,11.49
2022-09-25T07:34:50.950Z,11.52
2022-09-25T07:37:55.466Z,11.57
2022-09-25T07:40:58.113Z,11.59
2022-09-25T07:47:22.058Z,11.63
2022-09-25T07:50:24.226Z,11.63
2022-09-25T07:53:25.782Z,11.62
2022-09-25T07:56:27.892Z,11.62
2022-09-25T07:59:29.508Z,11.63
2022-09-25T08:02:31.184Z,11.63
2022-09-25T08:05:32.987Z,11.64
2022-09-25T08:08:35.062Z,11.63
2022-09-25T08:11:36.883Z,11.66
2022-09-25T08:14:38.658Z,11.65
2022-09-25T08:17:40.953Z,11.64
2022-09-25T08:20:42.741Z,11.63
2022-09-25T08:23:53.647Z,11.62
2022-09-25T08:26:55.306Z,11.62
2022-09-25T08:29:57.622Z,11.61
2022-09-25T08:32:59.315Z,11.62
2022-09-25T08:36:03.197Z,11.64
2022-09-25T08:39:05.905Z,11.68
2022-09-25T08:42:18.705Z,11.69
2022-09-25T08:45:46.917Z,11.73
2022-09-25T08:49:09.918Z,11.72
2022-09-25T08:52:16.424Z,11.73
2022-09-25T08:55:50.409Z,11.73
2022-09-25T08:59:01.298Z,11.75
2022-09-25T09:02:42.723Z,11.77
2022-09-25T09:05:51.461Z,11.79
2022-09-25T09:09:09.033Z,11.85
2022-09-25T09:12:19.543Z,11.91
2022-09-25T09:15:46.621Z,11.94
2022-09-25T09:18:48.483Z,11.95
2022-09-25T09:22:02.308Z,11.96
2022-09-25T09:25:18.964Z,11.96
2022-09-25T09:28:25.587Z,11.97
2022-09-25T09:31:53.957Z,11.98
2022-09-25T09:35:33.620Z,12.04
2022-09-25T09:38:58.639Z,12.10
2022-09-25T09:42:29.540Z,12.11
2022-09-25T09:46:03.416Z,12.13
2022-09-25T09:49:18.328Z,12.15
2022-09-25T09:52:24.386Z,12.12
2022-09-25T09:55:44.952Z,12.12
2022-09-25T09:58:57.526Z,12.17
2022-09-25T10:02:20.768Z,12.21
2022-09-25T10:05:27.844Z,12.23
2022-09-25T10:08:29.837Z,12.28
2022-09-25T10:11:32.589Z,12.35
2022-09-25T10:14:39.584Z,12.44
2022-09-25T10:17:42.759Z,12.48
2022-09-25T10:20:57.121Z,12.53
2022-09-25T10:23:59.596Z,12.58
2022-09-25T10:27:27.260Z,12.62
2022-09-25T10:30:28.930Z,12.66
2022-09-25T10:33:31.949Z,12.71
2022-09-25T10:36:46.483Z,12.77
2022-09-25T10:40:04.506Z,12.84
2022-09-25T10:43:18.475Z,12.90
2022-09-25T10:46:52.021Z,12.91
2022-09-25T10:50:12.087Z,12.90
2022-09-25T10:53:30.504Z,12.93
2022-09-25T10:56:38.117Z,12.98
2022-09-25T10:59:40.736Z,13.03
2022-09-25T11:02:46.556Z,13.06
2022-09-25T11:05:55.239Z,13.17
2022-09-25T11:09:16.436Z,13.18
2022-09-25T11:12:25.842Z,13.24
2022-09-25T11:15:28.061Z,13.28
2022-09-25T11:18:38.470Z,13.32
2022-09-25T11:21:50.521Z,13.32
2022-09-25T11:25:14.154Z,13.31
2022-09-25T11:28:30.978Z,13.25
2022-09-25T11:31:32.494Z,13.20
2022-09-25T11:35:12.989Z,13.21
2022-09-25T11:38:48.061Z,13.22
2022-09-25T11:42:18.216Z,13.29
2022-09-25T11:45:36.801Z,13.41
2022-09-25T11:48:54.490Z,13.49
2022-09-25T11:52:20.315Z,13.53
2022-09-25T11:55:34.802Z,13.63
2022-09-25T11:58:59.135Z,13.69
2022-09-25T12:02:32.901Z,13.77
2022-09-25T12:05:53.373Z,13.82
2022-09-25T12:09:13.678Z,13.87
2022-09-25T12:12:39.419Z,13.88
2022-09-25T12:15:42.362Z,13.92
2022-09-25T12:19:05.163Z,13.98
2022-09-25T12:22:37.632Z,14.01
2022-09-25T12:26:02.345Z,14.08
2022-09-25T12:29:29.122Z,14.17
2022-09-25T12:32:41.727Z,14.19
2022-09-25T12:36:10.249Z,14.27
2022-09-25T12:39:26.341Z,14.28
2022-09-25T12:42:41.559Z,14.36
2022-09-25T12:45:52.093Z,14.47
2022-09-25T12:49:02.263Z,14.59
2022-09-25T12:52:14.629Z,14.67
2022-09-25T12:55:18.855Z,14.72
2022-09-25T12:58:28.527Z,14.77
2022-09-25T13:01:51.567Z,14.85
2022-09-25T13:05:09.951Z,14.87
2022-09-25T13:08:57.911Z,14.97
2022-09-25T13:12:09.159Z,15.03
2022-09-25T13:15:24.045Z,15.04
2022-09-25T13:18:28.118Z,15.02
2022-09-25T13:21:32.495Z,15.03
2022-09-25T13:24:46.131Z,15.04
2022-09-25T13:27:47.794Z,15.06
2022-09-25T13:31:09.984Z,15.09
2022-09-25T13:34:18.788Z,15.17
2022-09-25T13:37:26.937Z,15.33
2022-09-25T13:40:45.682Z,15.45
2022-09-25T13:43:49.041Z,15.54
2022-09-25T13:46:50.820Z,15.62
2022-09-25T13:50:10.824Z,15.66
2022-09-25T13:54:04.913Z,15.70
2022-09-25T13:57:06.604Z,15.63
2022-09-25T14:00:15.695Z,15.67
2022-09-25T14:03:44.627Z,15.72
2022-09-25T14:06:49.099Z,15.70
2022-09-25T14:09:57.677Z,15.77
2022-09-25T14:13:04.580Z,15.82
2022-09-25T14:16:18.428Z,15.85
2022-09-25T14:19:34.779Z,15.82
2022-09-25T14:22:44.240Z,15.84
2022-09-25T14:25:47.642Z,15.88
2022-09-25T14:28:51.095Z,15.86
2022-09-25T14:32:07.105Z,15.82
2022-09-25T14:35:25.058Z,15.80
2022-09-25T14:38:46.269Z,15.78
2022-09-25T14:41:56.051Z,15.84
2022-09-25T14:45:16.682Z,15.87
2022-09-25T14:48:26.003Z,15.82
2022-09-25T14:51:40.822Z,15.76
2022-09-25T14:54:47.318Z,15.73
2022-09-25T14:57:50.996Z,15.67
2022-09-25T15:00:55.755Z,15.56
2022-09-25T15:04:06.731Z,15.48
2022-09-25T15:07:08.306Z,15.42
2022-09-25T15:10:29.656Z,15.35
2022-09-25T15:13:33.698Z,15.24
2022-09-25T15:16:56.046Z,15.19
2022-09-25T15:20:00.931Z,15.13
2022-09-25T15:23:05.909Z,15.09
2022-09-25T15:26:17.664Z,15.05
2022-09-25T15:29:23.979Z,15.02
2022-09-25T15:32:40.173Z,14.98
2022-09-25T15:35:41.874Z,14.96
2022-09-25T15:38:44.568Z,14.99
2022-09-25T15:41:46.306Z,15.04
2022-09-25T15:44:50.359Z,15.06
2022-09-25T15:47:53.790Z,15.10
2022-09-25T15:50:57.410Z,15.15
2022-09-25T15:54:05.153Z,15.18
2022-09-25T15:57:11.417Z,15.17
2022-09-25T16:00:50.068Z,15.16
2022-09-25T16:04:12.718Z,15.13
2022-09-25T16:07:30.135Z,15.11
2022-09-25T16:10:33.603Z,15.08
2022-09-25T16:13:41.013Z,15.08
2022-09-25T16:16:50.851Z,15.07
2022-09-25T16:20:06.413Z,15.06
2022-09-25T16:23:29.958Z,14.99
2022-09-25T16:26:41.975Z,14.94
2022-09-25T16:29:44.523Z,14.90
2022-09-25T16:32:59.392Z,14.85
2022-09-25T16:36:16.747Z,14.82
2022-09-25T16:39:36.232Z,14.77
2022-09-25T16:42:40.231Z,14.71
2022-09-25T16:45:58.252Z,14.67
2022-09-25T16:49:01.555Z,14.62
2022-09-25T16:52:07.613Z,14.55
2022-09-25T16:55:22.735Z,14.51
2022-09-25T16:58:24.651Z,14.45
2022-09-25T17:01:28.292Z,14.42
2022-09-25T17:04:31.256Z,14.38
2022-09-25T17:07:33.013Z,14.35
2022-09-25T17:10:34.660Z,14.30
2022-09-25T17:13:36.562Z,14.25
2022-09-25T17:16:38.219Z,14.21
2022-09-25T17:19:39.880Z,14.17
2022-09-25T17:22:42.144Z,14.12
2022-09-25T17:25:50.286Z,14.12
2022-09-25T17:28:52.096Z,14.12
2022-09-25T17:31:54.641Z,14.07
2022-09-25T17:34:58.318Z,14.05
2022-09-25T17:38:01.608Z,14.02
2022-09-25T17:41:06.911Z,14.01
2022-09-25T17:44:27.386Z,14.01
2022-09-25T17:47:30.857Z,13.96
2022-09-25T17:50:35.670Z,13.92
2022-09-25T17:53:37.496Z,13.91
2022-09-25T17:56:42.486Z,13.86
2022-09-25T17:59:44.132Z,13.83
2022-09-25T18:02:45.933Z,13.81
2022-09-25T18:05:48.296Z,13.76
2022-09-25T18:08:51.239Z,13.74
2022-09-25T18:11:53.145Z,13.72
2022-09-25T18:14:54.759Z,13.68
2022-09-25T18:17:56.915Z,13.67
2022-09-25T18:21:16.834Z,13.64
2022-09-25T18:24:18.479Z,13.59
2022-09-25T18:27:20.629Z,13.58
2022-09-25T18:30:24.776Z,13.55
2022-09-25T18:33:26.640Z,13.54
2022-09-25T18:36:28.228Z,13.50
2022-09-25T18:39:30.474Z,13.45
2022-09-25T18:42:32.541Z,13.42
2022-09-25T18:45:34.185Z,13.41
2022-09-25T18:48:37.474Z,13.38
2022-09-25T18:51:40.041Z,13.39
2022-09-25T18:54:42.231Z,13.35
2022-09-25T18:57:44.228Z,13.32
2022-09-25T19:00:47.166Z,13.27
2022-09-25T19:03:52.033Z,13.29
2022-09-25T19:06:53.752Z,13.26
2022-09-25T19:09:56.445Z,13.23
2022-09-25T19:12:58.436Z,13.23
2022-09-25T19:16:01.185Z,13.24
2022-09-25T19:19:02.842Z,13.22
2022-09-25T19:22:05.263Z,13.22
2022-09-25T19:25:07.295Z,13.21
2022-09-25T19:28:09.019Z,13.20
2022-09-25T19:31:20.010Z,13.18
2022-09-25T19:34:22.453Z,13.13
2022-09-25T19:37:27.692Z,13.12
2022-09-25T19:40:38.903Z,13.08
2022-09-25T19:43:40.846Z,13.06
2022-09-25T19:46:42.906Z,13.03
2022-09-25T19:49:44.620Z,13.00
2022-09-25T19:52:50.269Z,12.95
2022-09-25T19:55:54.237Z,12.94
2022-09-25T19:58:56.876Z,12.89
2022-09-25T20:01:58.539Z,12.86
2022-09-25T20:05:00.251Z,12.82
2022-09-25T20:08:02.091Z,12.77
2022-09-25T20:11:18.617Z,12.76
2022-09-25T20:14:25.629Z,12.74
2022-09-25T20:17:27.452Z,12.72
2022-09-25T20:20:29.816Z,12.70
2022-09-25T20:23:35.620Z,12.68
2022-09-25T20:26:37.505Z,12.65
2022-09-25T20:29:39.193Z,12.61
2022-09-25T20:32:40.977Z,12.60
2022-09-25T20:35:42.545Z,12.58
2022-09-25T20:38:45.371Z,12.55
2022-09-25T20:41:47.059Z,12.54
2022-09-25T20:44:48.661Z,12.52
2022-09-25T20:47:53.916Z,12.53
2022-09-25T20:50:55.512Z,12.52
2022-09-25T20:53:59.744Z,12.51
2022-09-25T20:57:01.273Z,12.51
2022-09-25T21:00:03.648Z,12.50
2022-09-25T21:03:05.447Z,12.47
2022-09-25T21:06:16.000Z,12.47
2022-09-25T21:09:24.079Z,12.45
2022-09-25T21:12:25.691Z,12.43
2022-09-25T21:15:28.650Z,12.43
2022-09-25T21:18:31.202Z,12.41
2022-09-25T21:21:33.803Z,12.42
2022-09-25T21:24:35.895Z,12.43
2022-09-25T21:27:37.527Z,12.43
2022-09-25T21:30:39.223Z,12.40
2022-09-25T21:33:41.068Z,12.40
2022-09-25T21:36:43.560Z,12.38
2022-09-25T21:39:45.124Z,12.37
2022-09-25T21:42:46.725Z,12.33
2022-09-25T21:45:48.359Z,12.29
2022-09-25T21:48:55.526Z,12.27
2022-09-25T21:51:57.291Z,12.24
2022-09-25T21:54:58.835Z,12.22
2022-09-25T21:58:00.543Z,12.20
2022-09-25T22:01:03.536Z,12.20
2022-09-25T22:04:06.876Z,12.16
2022-09-25T22:07:08.447Z,12.12
2022-09-25T22:10:10.003Z,12.09
2022-09-25T22:13:11.568Z,12.07
2022-09-25T22:16:19.039Z,12.08
2022-09-25T22:19:29.003Z,12.06
2022-09-25T22:22:30.561Z,12.04
2022-09-25T22:25:34.193Z,12.02
2022-09-25T22:28:36.317Z,12.03
2022-09-25T22:31:40.993Z,12.03
2022-09-25T22:34:42.591Z,11.99
2022-09-25T22:37:44.164Z,11.99
2022-09-25T22:40:45.872Z,11.97
2022-09-25T22:43:50.981Z,11.97
2022-09-25T22:46:52.584Z,11.95
2022-09-25T22:49:54.621Z,11.93
2022-09-25T22:52:58.317Z,11.94
2022-09-25T22:56:16.131Z,11.93
2022-09-25T22:59:18.449Z,11.90
2022-09-25T23:02:20.231Z,11.90
2022-09-25T23:05:21.838Z,11.88
2022-09-25T23:08:23.509Z,11.88
2022-09-25T23:11:26.264Z,11.88
2022-09-25T23:14:31.595Z,11.87
2022-09-25T23:17:33.145Z,11.85
2022-09-25T23:20:34.813Z,11.86
2022-09-25T23:23:36.421Z,11.85
2022-09-25T23:26:38.204Z,11.86
2022-09-25T23:29:39.773Z,11.83
2022-09-25T23:32:41.459Z,11.83
2022-09-25T23:35:43.049Z,11.81
2022-09-25T23:38:45.006Z,11.79
2022-09-25T23:41:47.216Z,11.79
2022-09-25T23:44:49.066Z,11.76
2022-09-25T23:47:50.617Z,11.78
2022-09-25T23:50:52.731Z,11.76
2022-09-25T23:53:57.108Z,11.77
2022-09-25T23:56:59.374Z,11.77
